South AfricaFixed distance
BNAC Marathon
13 Apr2025
Distance
48km
Finishers
931730 men201 women
Winning time
2:50:57h
Median pace
9.28km/h
Pace distribution
931 finishers · 7.14–16.85 km/h · mean 9.64
Every finisher ran the same 48 km course, so these paces are directly comparable.
Histogram of finisher pace. 931 finishers ranged from 7.14 to 16.85 kilometres per hour, with a mean of 9.64 and a median of 9.28. The busiest band is 8.0 to 8.5 kilometres per hour, with 196 finishers.
Results
Ranks 851–900 of 931
| Rank | Runner | Time | Pace | Cat. | Placing |
|---|---|---|---|---|---|
| 856 | Anglo RPM Marathon Club | 6:02:30h | 7.95 | M35 | 682nd M · 109th M35 |
| 857 | Omnia AC | 6:03:03h | 7.93 | — | 683rd M |
| 858 | Waterfall City AC | 6:03:13h | 7.93 | M55 | 684th M · 40th M55 |
| 859 | Team Vitality Club CG | 6:03:18h | 7.93 | M55 | 685th M · 41st M55 |
| 860 | Team Vitality Club CG | 6:03:39h | 7.92 | — | 686th M |
| 861 | Khosa Sports Club | 6:04:00h | 7.91 | W60 | 170th F · 3rd W60 |
| 862 | Meyerton AC | 6:05:01h | 7.89 | M45 | 687th M · 115th M45 |
| 863 | Polokwane Athletic Club | 6:05:19h | 7.88 | — | 171st F |
| 864 | City of Tshwane AC | 6:05:20h | 7.88 | W45 | 172nd F · 27th W45 |
| 865 | Team Vitality Club CG | 6:05:34h | 7.88 | M50 | 688th M · 78th M50 |
| 866 | Resbank AC GN | 6:05:38h | 7.88 | M55 | 689th M · 42nd M55 |
| 867 | Resbank AC GN | 6:05:40h | 7.88 | M40 | 690th M · 144th M40 |
| 868 | Benoni Harriers | 6:05:42h | 7.88 | W40 | 173rd F · 36th W40 |
| 869 | Qhubeka AC | 6:07:19h | 7.84 | W60 | 174th F · 4th W60 |
| 871 | Exxaro AC GN | 6:08:51h | 7.81 | W40 | 175th F · 37th W40 |
| 872 | Sibanye Stillwater.AC | 6:08:52h | 7.81 | W45 | 176th F · 28th W45 |
| 873 | Sibanye Gold Driefontein | 6:08:53h | 7.81 | — | 691st M |
| 874 | Azania AC | 6:09:26h | 7.80 | M40 | 692nd M · 145th M40 |
| 875 | Runzone Athletics Club | 6:09:31h | 7.79 | — | 693rd M |
| 876 | Team Vitality Club CG | 6:09:33h | 7.79 | — | 694th M |
| 877 | Run Walk for Life MPU | 6:09:34h | 7.79 | — | 177th F |
| 878 | Run Walk for Life MPU | 6:09:35h | 7.79 | W45 | 178th F · 29th W45 |
| 879 | Vaal AC | 6:09:36h | 7.79 | M50 | 695th M · 79th M50 |
| 880 | Meyerton AC | 6:09:38h | 7.79 | — | 179th F |
| 881 | Just Running AC | 6:09:39h | 7.79 | M45 | 696th M · 116th M45 |
| 882 | Just Running AC | 6:09:40h | 7.79 | — | 180th F |
| 883 | Masa Athletic Club | 6:10:28h | 7.77 | — | 181st F |
| 884 | Masa Athletic Club | 6:10:28h | 7.77 | — | 697th M |
| 885 | Runners of Hope | 6:10:39h | 7.77 | — | 182nd F |
| 886 | Germiston Callies Harr... | 6:10:50h | 7.77 | M45 | 698th M · 117th M45 |
| 887 | Waterfall City AC | 6:11:01h | 7.76 | M45 | 699th M · 118th M45 |
| 888 | Ampa Athletic Club | 6:11:02h | 7.76 | — | 700th M |
| 889 | Ford AC | 6:11:18h | 7.76 | — | 701st M |
| 890 | Jeppe Quondam Athletic... | 6:12:23h | 7.73 | M60 | 702nd M · 16th M60 |
| 891 | Randburg Harriers | 6:12:34h | 7.73 | M35 | 703rd M · 110th M35 |
| 892 | Team Vitality Club CG | 6:12:41h | 7.73 | W40 | 183rd F · 38th W40 |
| 893 | Easy Equities Born 2 R... | 6:12:50h | 7.72 | W50 | 184th F · 16th W50 |
| 894 | Easy Equities Born 2 R... | 6:12:51h | 7.72 | — | 704th M |
| 895 | Krugersdorp Road Runners | 6:13:31h | 7.71 | M55 | 705th M · 43rd M55 |
| 896 | 32Gi Running Club CG | 6:13:32h | 7.71 | — | 185th F |
| 897 | Germiston Callies Harr... | 6:13:38h | 7.71 | M50 | 706th M · 80th M50 |
| 898 | Germiston | 6:13:39h | 7.71 | M50 | 707th M · 81st M50 |
| 899 | Tuks AC | 6:14:11h | 7.70 | — | 186th F |
| 900 | Powered-Up Runners AC | 6:15:38h | 7.67 | W23 | 187th F · 13th W23 |
| 901 | Waterfall City AC | 6:15:43h | 7.67 | M35 | 708th M · 111th M35 |
| 902 | Team Vitality Club CG | 6:15:48h | 7.66 | W35 | 188th F · 20th W35 |
| 903 | Runners of Hope | 6:15:59h | 7.66 | — | 189th F |
| 904 | FAT Cats AC | 6:16:55h | 7.64 | M40 | 709th M · 146th M40 |
| 905 | Team Vitality Club GN | 6:19:39h | 7.59 | — | 190th F |
| 906 | Eskom AC GN | 6:19:40h | 7.59 | M45 | 710th M · 119th M45 |
- 856Anglo RPM Marathon Club682nd M · 109th M35Time6:02:30hPace7.95Cat.M35
- 857Omnia AC683rd MTime6:03:03hPace7.93
- 858Waterfall City AC684th M · 40th M55Time6:03:13hPace7.93Cat.M55
- 859Team Vitality Club CG685th M · 41st M55Time6:03:18hPace7.93Cat.M55
- 860Team Vitality Club CG686th MTime6:03:39hPace7.92
- 861Khosa Sports Club170th F · 3rd W60Time6:04:00hPace7.91Cat.W60
- 862Meyerton AC687th M · 115th M45Time6:05:01hPace7.89Cat.M45
- 863Polokwane Athletic Club171st FTime6:05:19hPace7.88
- 864City of Tshwane AC172nd F · 27th W45Time6:05:20hPace7.88Cat.W45
- 865Team Vitality Club CG688th M · 78th M50Time6:05:34hPace7.88Cat.M50
- 866Resbank AC GN689th M · 42nd M55Time6:05:38hPace7.88Cat.M55
- 867Resbank AC GN690th M · 144th M40Time6:05:40hPace7.88Cat.M40
- 868Benoni Harriers173rd F · 36th W40Time6:05:42hPace7.88Cat.W40
- 869Qhubeka AC174th F · 4th W60Time6:07:19hPace7.84Cat.W60
- 871Exxaro AC GN175th F · 37th W40Time6:08:51hPace7.81Cat.W40
- 872Sibanye Stillwater.AC176th F · 28th W45Time6:08:52hPace7.81Cat.W45
- 873Sibanye Gold Driefontein691st MTime6:08:53hPace7.81
- 874Azania AC692nd M · 145th M40Time6:09:26hPace7.80Cat.M40
- 875Runzone Athletics Club693rd MTime6:09:31hPace7.79
- 876Team Vitality Club CG694th MTime6:09:33hPace7.79
- 877Run Walk for Life MPU177th FTime6:09:34hPace7.79
- 878Run Walk for Life MPU178th F · 29th W45Time6:09:35hPace7.79Cat.W45
- 879Vaal AC695th M · 79th M50Time6:09:36hPace7.79Cat.M50
- 880Meyerton AC179th FTime6:09:38hPace7.79
- 881Just Running AC696th M · 116th M45Time6:09:39hPace7.79Cat.M45
- 882Just Running AC180th FTime6:09:40hPace7.79
- 883Masa Athletic Club181st FTime6:10:28hPace7.77
- 884Masa Athletic Club697th MTime6:10:28hPace7.77
- 885Runners of Hope182nd FTime6:10:39hPace7.77
- 886Germiston Callies Harr...698th M · 117th M45Time6:10:50hPace7.77Cat.M45
- 887Waterfall City AC699th M · 118th M45Time6:11:01hPace7.76Cat.M45
- 888Ampa Athletic Club700th MTime6:11:02hPace7.76
- 889Ford AC701st MTime6:11:18hPace7.76
- 890Jeppe Quondam Athletic...702nd M · 16th M60Time6:12:23hPace7.73Cat.M60
- 891Randburg Harriers703rd M · 110th M35Time6:12:34hPace7.73Cat.M35
- 892Team Vitality Club CG183rd F · 38th W40Time6:12:41hPace7.73Cat.W40
- 893Easy Equities Born 2 R...184th F · 16th W50Time6:12:50hPace7.72Cat.W50
- 894Easy Equities Born 2 R...704th MTime6:12:51hPace7.72
- 895Krugersdorp Road Runners705th M · 43rd M55Time6:13:31hPace7.71Cat.M55
- 89632Gi Running Club CG185th FTime6:13:32hPace7.71
- 897Germiston Callies Harr...706th M · 80th M50Time6:13:38hPace7.71Cat.M50
- 898Germiston707th M · 81st M50Time6:13:39hPace7.71Cat.M50
- 899Tuks AC186th FTime6:14:11hPace7.70
- 900Powered-Up Runners AC187th F · 13th W23Time6:15:38hPace7.67Cat.W23
- 901Waterfall City AC708th M · 111th M35Time6:15:43hPace7.67Cat.M35
- 902Team Vitality Club CG188th F · 20th W35Time6:15:48hPace7.66Cat.W35
- 903Runners of Hope189th FTime6:15:59hPace7.66
- 904FAT Cats AC709th M · 146th M40Time6:16:55hPace7.64Cat.M40
- 905Team Vitality Club GN190th FTime6:19:39hPace7.59
- 906Eskom AC GN710th M · 119th M45Time6:19:40hPace7.59Cat.M45
Showing ranks 851–900 of 931